createdAt,value
2018-06-09T00:01:25.212Z,18.60
2018-06-09T00:03:53.659Z,18.50
2018-06-09T00:06:22.134Z,18.70
2018-06-09T00:08:50.685Z,18.90
2018-06-09T00:11:19.292Z,19.10
2018-06-09T00:13:47.796Z,19.10
2018-06-09T00:16:16.256Z,18.90
2018-06-09T00:21:13.040Z,18.50
2018-06-09T00:23:41.486Z,18.40
2018-06-09T00:26:09.961Z,18.40
2018-06-09T00:28:38.565Z,18.40
2018-06-09T00:31:07.031Z,18.50
2018-06-09T00:33:35.592Z,18.70
2018-06-09T00:36:04.081Z,18.50
2018-06-09T00:38:32.552Z,18.60
2018-06-09T00:41:01.086Z,18.60
2018-06-09T00:43:29.547Z,18.60
2018-06-09T00:45:57.990Z,18.40
2018-06-09T00:48:26.496Z,18.50
2018-06-09T00:50:54.961Z,18.50
2018-06-09T00:53:23.424Z,18.30
2018-06-09T00:57:00.120Z,18.30
2018-06-09T00:59:28.546Z,18.30
2018-06-09T01:01:56.960Z,18.60
2018-06-09T01:04:25.457Z,18.70
2018-06-09T01:06:53.920Z,18.70
2018-06-09T01:09:22.405Z,18.80
2018-06-09T01:11:51.099Z,18.70
2018-06-09T01:14:19.541Z,18.70
2018-06-09T01:16:48.265Z,18.60
2018-06-09T01:19:16.712Z,18.70
2018-06-09T01:21:45.333Z,18.70
2018-06-09T01:24:13.815Z,18.60
2018-06-09T01:26:42.308Z,18.50
2018-06-09T01:29:10.937Z,18.50
2018-06-09T01:31:39.433Z,18.40
2018-06-09T01:34:07.881Z,18.40
2018-06-09T01:36:36.359Z,18.40
2018-06-09T01:39:07.596Z,18.30
2018-06-09T01:41:36.746Z,18.20
2018-06-09T01:44:05.499Z,18.10
2018-06-09T01:46:33.954Z,18.10
2018-06-09T01:49:02.436Z,18.30
2018-06-09T01:51:31.075Z,18.40
2018-06-09T01:53:59.518Z,18.40
2018-06-09T01:56:28.153Z,18.40
2018-06-09T01:58:56.721Z,18.40
2018-06-09T02:01:25.228Z,18.30
2018-06-09T02:03:53.865Z,18.20
2018-06-09T02:06:22.373Z,18.30
2018-06-09T02:08:51.051Z,18.20
2018-06-09T02:11:19.490Z,18.30
2018-06-09T02:13:48.213Z,18.20
2018-06-09T02:16:16.655Z,18.30
2018-06-09T02:18:45.144Z,18.20
2018-06-09T02:21:13.804Z,18.30
2018-06-09T02:23:42.297Z,18.20
2018-06-09T02:26:11.016Z,18.20
2018-06-09T02:28:39.474Z,18.10
2018-06-09T02:31:07.916Z,18.10
2018-06-09T02:33:36.389Z,18.10
2018-06-09T02:36:05.249Z,18.00
2018-06-09T02:38:33.818Z,18.00
2018-06-09T02:41:02.383Z,18.00
2018-06-09T02:43:30.901Z,17.90
2018-06-09T02:45:59.374Z,18.00
2018-06-09T02:48:27.805Z,17.90
2018-06-09T02:50:56.263Z,18.00
2018-06-09T02:53:24.875Z,18.00
2018-06-09T02:55:53.392Z,18.10
2018-06-09T02:58:21.872Z,18.10
2018-06-09T03:00:50.297Z,18.20
2018-06-09T03:03:18.742Z,18.20
2018-06-09T03:05:47.321Z,18.30
2018-06-09T03:08:15.818Z,18.30
2018-06-09T03:10:44.463Z,18.30
2018-06-09T03:13:12.942Z,18.30
2018-06-09T03:15:41.371Z,18.30
2018-06-09T03:18:09.931Z,18.30
2018-06-09T03:20:38.482Z,18.20
2018-06-09T03:23:07.017Z,18.20
2018-06-09T03:25:35.481Z,18.10
2018-06-09T03:28:03.937Z,18.10
2018-06-09T03:30:32.372Z,18.10
2018-06-09T03:33:00.891Z,18.10
2018-06-09T03:35:29.356Z,18.10
2018-06-09T03:37:57.845Z,18.10
2018-06-09T03:40:26.281Z,18.10
2018-06-09T03:42:54.716Z,18.10
2018-06-09T03:45:23.201Z,18.10
2018-06-09T03:47:51.673Z,18.20
2018-06-09T03:50:20.213Z,18.20
2018-06-09T03:52:48.784Z,18.10
2018-06-09T03:55:17.351Z,18.10
2018-06-09T03:57:45.935Z,18.10
2018-06-09T04:00:14.385Z,18.10
2018-06-09T04:02:42.979Z,18.10
2018-06-09T04:05:11.481Z,18.10
2018-06-09T04:07:40.083Z,18.10
2018-06-09T04:10:08.513Z,18.20
2018-06-09T04:12:37.152Z,18.30
2018-06-09T04:15:05.630Z,18.30
2018-06-09T04:17:34.216Z,18.30
2018-06-09T04:20:02.724Z,18.40
2018-06-09T04:22:31.137Z,18.30
2018-06-09T04:24:59.796Z,18.00
2018-06-09T04:27:28.227Z,17.90
2018-06-09T04:29:56.896Z,17.90
2018-06-09T04:32:25.357Z,17.90
2018-06-09T04:34:53.829Z,18.10
2018-06-09T04:37:22.380Z,18.20
2018-06-09T04:39:50.818Z,18.20
2018-06-09T04:42:19.287Z,18.20
2018-06-09T04:44:47.856Z,18.30
2018-06-09T04:47:16.428Z,18.30
2018-06-09T04:49:44.891Z,18.40
2018-06-09T04:52:13.395Z,18.60
2018-06-09T04:54:41.782Z,18.90
2018-06-09T04:57:10.217Z,19.00
2018-06-09T04:59:38.648Z,19.00
2018-06-09T05:02:07.116Z,19.00
2018-06-09T05:04:35.766Z,19.20
2018-06-09T05:07:04.357Z,19.10
2018-06-09T05:09:32.848Z,19.10
2018-06-09T05:12:01.590Z,19.20
2018-06-09T05:14:30.278Z,19.30
2018-06-09T05:16:59.132Z,19.30
2018-06-09T05:19:27.819Z,19.40
2018-06-09T05:21:56.321Z,19.40
2018-06-09T05:24:25.082Z,19.50
2018-06-09T05:26:53.595Z,19.70
2018-06-09T05:29:22.104Z,19.70
2018-06-09T05:31:50.591Z,19.50
2018-06-09T05:34:19.228Z,19.40
2018-06-09T05:36:47.764Z,19.50
2018-06-09T05:39:16.441Z,19.50
2018-06-09T05:44:13.251Z,19.70
2018-06-09T05:46:41.702Z,19.70
2018-06-09T05:49:10.202Z,19.50
2018-06-09T05:51:38.801Z,19.60
2018-06-09T05:54:07.251Z,19.90
2018-06-09T05:56:35.734Z,19.60
2018-06-09T05:59:04.208Z,19.50
2018-06-09T06:01:32.744Z,19.70
2018-06-09T06:04:01.416Z,19.80
2018-06-09T06:06:29.853Z,19.80
2018-06-09T06:08:58.331Z,19.90
2018-06-09T06:11:27.064Z,19.80
2018-06-09T06:13:55.509Z,19.80
2018-06-09T06:16:24.047Z,20.10
2018-06-09T06:18:52.476Z,20.00
2018-06-09T06:21:20.936Z,20.30
2018-06-09T06:23:49.386Z,20.60
2018-06-09T06:26:18.067Z,20.80
2018-06-09T06:28:46.540Z,21.10
2018-06-09T06:31:15.264Z,21.20
2018-06-09T06:33:43.733Z,21.20
2018-06-09T06:36:12.216Z,21.10
2018-06-09T06:38:40.780Z,21.40
2018-06-09T06:41:09.227Z,21.50
2018-06-09T06:43:37.955Z,21.40
2018-06-09T06:46:06.394Z,21.20
2018-06-09T06:48:34.980Z,20.70
2018-06-09T06:51:03.505Z,20.90
2018-06-09T06:53:32.157Z,21.20
2018-06-09T06:56:00.692Z,21.20
2018-06-09T06:58:29.322Z,20.60
2018-06-09T07:00:57.833Z,20.50
2018-06-09T07:03:26.332Z,20.70
2018-06-09T07:05:54.779Z,20.70
2018-06-09T07:08:23.263Z,21.20
2018-06-09T07:10:51.784Z,21.10
2018-06-09T07:13:20.352Z,21.10
2018-06-09T07:15:48.840Z,21.70
2018-06-09T07:18:17.416Z,22.40
2018-06-09T07:20:45.916Z,22.90
2018-06-09T07:23:14.375Z,23.00
2018-06-09T07:25:43.181Z,22.80
2018-06-09T07:28:11.576Z,22.60
2018-06-09T07:30:40.026Z,23.40
2018-06-09T07:33:08.465Z,24.40
2018-06-09T07:35:37.045Z,23.10
2018-06-09T07:38:05.662Z,23.50
2018-06-09T07:40:34.285Z,23.20
2018-06-09T07:45:31.069Z,24.70
2018-06-09T07:47:59.532Z,24.70
2018-06-09T07:50:28.239Z,23.00
2018-06-09T07:52:56.710Z,23.30
2018-06-09T07:55:25.264Z,23.90
2018-06-09T07:57:53.700Z,23.90
2018-06-09T08:00:22.224Z,23.80
2018-06-09T08:02:50.834Z,25.20
2018-06-09T08:05:19.292Z,24.40
2018-06-09T08:07:48.015Z,23.50
2018-06-09T08:10:16.509Z,22.90
2018-06-09T08:12:45.044Z,23.20
2018-06-09T08:15:13.524Z,22.90
2018-06-09T08:17:42.239Z,22.40
2018-06-09T08:20:10.723Z,22.80
2018-06-09T08:22:39.150Z,23.10
2018-06-09T08:25:07.788Z,23.30
2018-06-09T08:27:36.399Z,23.30
2018-06-09T08:30:05.291Z,23.90
2018-06-09T08:32:33.781Z,24.10
2018-06-09T08:35:02.382Z,23.80
2018-06-09T08:37:30.890Z,23.60
2018-06-09T08:39:59.304Z,23.50
2018-06-09T08:42:27.796Z,23.60
2018-06-09T08:44:56.426Z,23.70
2018-06-09T08:47:24.937Z,24.90
2018-06-09T08:49:53.488Z,26.20
2018-06-09T08:52:22.024Z,26.40
2018-06-09T08:54:50.483Z,27.70
2018-06-09T08:57:19.069Z,28.80
2018-06-09T08:59:47.575Z,28.40
2018-06-09T09:02:16.049Z,28.80
2018-06-09T09:04:44.487Z,28.70
2018-06-09T09:07:12.983Z,26.80
2018-06-09T09:09:41.439Z,26.40
2018-06-09T09:12:09.921Z,28.10
2018-06-09T09:14:38.366Z,29.00
2018-06-09T09:17:06.897Z,28.60
2018-06-09T09:19:35.384Z,27.00
2018-06-09T09:22:03.940Z,26.20
2018-06-09T09:24:32.417Z,26.00
2018-06-09T09:27:00.871Z,26.80
2018-06-09T09:29:29.329Z,26.90
2018-06-09T09:31:57.820Z,27.10
2018-06-09T09:34:26.404Z,27.80
2018-06-09T09:36:55.233Z,29.80
2018-06-09T09:39:23.873Z,29.00
2018-06-09T09:41:52.335Z,28.00
2018-06-09T09:44:20.812Z,30.20
2018-06-09T09:46:49.317Z,28.10
2018-06-09T09:49:17.836Z,26.70
2018-06-09T09:51:46.315Z,27.00
2018-06-09T09:54:15.077Z,27.50
2018-06-09T09:56:43.549Z,27.00
2018-06-09T09:59:12.145Z,26.20
2018-06-09T10:01:40.715Z,25.40
2018-06-09T10:04:09.194Z,25.60
2018-06-09T10:06:37.692Z,25.70
2018-06-09T10:09:08.322Z,26.50
2018-06-09T10:11:36.939Z,27.20
2018-06-09T10:14:05.417Z,29.40
2018-06-09T10:16:34.005Z,29.20
2018-06-09T10:19:02.516Z,28.80
2018-06-09T10:21:31.220Z,28.10
2018-06-09T10:23:59.697Z,28.00
2018-06-09T10:26:28.382Z,28.70
2018-06-09T10:28:56.934Z,29.30
2018-06-09T10:31:25.561Z,29.30
2018-06-09T10:33:54.132Z,31.70
2018-06-09T10:36:22.636Z,29.30
2018-06-09T10:38:51.074Z,27.30
2018-06-09T10:41:19.632Z,27.90
2018-06-09T10:43:48.126Z,29.40
2018-06-09T10:46:16.700Z,29.30
2018-06-09T10:48:45.277Z,29.00
2018-06-09T10:51:13.732Z,29.10
2018-06-09T10:53:42.168Z,28.80
2018-06-09T10:56:10.908Z,28.10
2018-06-09T10:58:39.398Z,27.40
2018-06-09T11:01:07.900Z,27.00
2018-06-09T11:03:36.396Z,27.50
2018-06-09T11:06:04.989Z,26.90
2018-06-09T11:08:33.624Z,26.10
2018-06-09T11:11:02.064Z,26.40
2018-06-09T11:13:30.530Z,28.40
2018-06-09T11:15:59.079Z,28.40
2018-06-09T11:18:27.752Z,27.80
2018-06-09T11:20:56.484Z,26.90
2018-06-09T11:23:24.913Z,26.40
2018-06-09T11:25:53.492Z,26.10
2018-06-09T11:28:21.928Z,26.10
2018-06-09T11:30:50.521Z,25.90
2018-06-09T11:33:18.980Z,26.50
2018-06-09T11:35:47.618Z,26.00
2018-06-09T11:38:16.077Z,26.80
2018-06-09T11:40:44.553Z,26.80
2018-06-09T11:43:13.144Z,27.60
2018-06-09T11:45:41.757Z,27.60
2018-06-09T11:48:10.399Z,28.10
2018-06-09T11:50:38.873Z,27.70
2018-06-09T11:53:07.529Z,27.80
2018-06-09T11:58:04.257Z,27.90
2018-06-09T12:00:32.842Z,28.50
2018-06-09T12:03:01.421Z,29.20
2018-06-09T12:05:29.928Z,29.30
2018-06-09T12:10:26.884Z,28.70
2018-06-09T12:12:55.395Z,28.80
2018-06-09T12:15:23.872Z,28.50
2018-06-09T12:17:52.443Z,28.50
2018-06-09T12:20:20.961Z,27.90
2018-06-09T12:22:49.583Z,27.70
2018-06-09T12:25:18.036Z,26.90
2018-06-09T12:27:46.749Z,26.70
2018-06-09T12:30:15.274Z,26.90
2018-06-09T12:32:43.868Z,27.00
2018-06-09T12:35:12.340Z,27.60
2018-06-09T12:37:40.858Z,27.70
2018-06-09T12:40:09.457Z,27.30
2018-06-09T12:42:37.972Z,27.30
2018-06-09T12:45:06.395Z,28.50
2018-06-09T12:47:34.861Z,28.70
2018-06-09T12:50:03.393Z,29.10
2018-06-09T12:52:31.927Z,28.10
2018-06-09T12:55:00.539Z,27.60
2018-06-09T12:57:29.177Z,27.50
2018-06-09T12:59:57.633Z,28.40
2018-06-09T13:02:26.240Z,28.00
2018-06-09T13:04:54.695Z,28.70
2018-06-09T13:07:23.232Z,28.70
2018-06-09T13:09:51.867Z,28.00
2018-06-09T13:12:20.344Z,27.80
2018-06-09T13:14:48.839Z,27.70
2018-06-09T13:17:17.282Z,27.70
2018-06-09T13:19:45.744Z,27.70
2018-06-09T13:22:14.175Z,27.70
2018-06-09T13:24:42.651Z,27.50
2018-06-09T13:27:11.088Z,27.30
2018-06-09T13:29:39.652Z,27.20
2018-06-09T13:32:08.116Z,27.10
2018-06-09T13:34:36.798Z,27.20
2018-06-09T13:37:05.388Z,27.30
2018-06-09T13:39:33.896Z,26.90
2018-06-09T13:42:02.469Z,26.60
2018-06-09T13:44:31.068Z,26.40
2018-06-09T13:46:59.737Z,26.50
2018-06-09T13:49:28.205Z,26.50
2018-06-09T13:51:56.783Z,26.50
2018-06-09T13:54:25.318Z,26.50
2018-06-09T13:59:22.060Z,26.50
2018-06-09T14:01:50.575Z,26.50
2018-06-09T14:04:19.177Z,26.40
2018-06-09T14:06:47.632Z,26.10
2018-06-09T14:09:16.329Z,26.00
2018-06-09T14:11:44.928Z,26.00
2018-06-09T14:14:13.404Z,26.30
2018-06-09T14:16:41.895Z,26.40
2018-06-09T14:19:10.452Z,26.20
2018-06-09T14:21:38.915Z,26.40
2018-06-09T14:24:07.581Z,26.40
2018-06-09T14:26:36.009Z,26.10
2018-06-09T14:29:04.717Z,26.00
2018-06-09T14:31:33.164Z,26.20
2018-06-09T14:34:01.731Z,26.30
2018-06-09T14:36:30.242Z,25.50
2018-06-09T14:38:58.809Z,24.90
2018-06-09T14:41:27.281Z,24.80
2018-06-09T14:43:55.745Z,24.70
2018-06-09T14:46:24.399Z,24.40
2018-06-09T14:48:52.881Z,24.50
2018-06-09T14:51:21.398Z,24.70
2018-06-09T14:53:49.917Z,24.80
2018-06-09T14:56:18.445Z,24.80
2018-06-09T14:58:47.083Z,24.90
2018-06-09T15:01:15.555Z,24.80
2018-06-09T15:03:44.013Z,24.80
2018-06-09T15:06:12.516Z,24.80
2018-06-09T15:08:40.944Z,24.90
2018-06-09T15:11:09.446Z,24.60
2018-06-09T15:13:37.936Z,24.30
2018-06-09T15:16:06.518Z,24.50
2018-06-09T15:18:35.312Z,24.50
2018-06-09T15:21:03.935Z,24.60
2018-06-09T15:23:32.529Z,24.60
2018-06-09T15:26:01.257Z,24.40
2018-06-09T15:28:29.742Z,24.30
2018-06-09T15:30:58.417Z,24.30
2018-06-09T15:33:26.981Z,24.50
2018-06-09T15:35:55.516Z,24.60
2018-06-09T15:38:24.012Z,24.20
2018-06-09T15:40:52.513Z,24.10
2018-06-09T15:43:20.963Z,24.20
2018-06-09T15:45:49.520Z,24.50
2018-06-09T15:48:17.988Z,24.50
2018-06-09T15:50:46.625Z,24.40
2018-06-09T15:53:15.090Z,24.60
2018-06-09T15:55:43.546Z,24.90
2018-06-09T15:58:12.240Z,24.90
2018-06-09T16:00:40.875Z,25.20
2018-06-09T16:03:09.438Z,25.40
2018-06-09T16:05:38.046Z,25.40
2018-06-09T16:08:06.549Z,25.30
2018-06-09T16:10:35.492Z,25.30
2018-06-09T16:13:03.952Z,25.30
2018-06-09T16:15:32.377Z,25.20
2018-06-09T16:18:00.838Z,25.20
2018-06-09T16:20:29.296Z,25.20
2018-06-09T16:22:57.858Z,25.20
2018-06-09T16:25:26.386Z,25.20
2018-06-09T16:27:55.039Z,25.30
2018-06-09T16:30:23.520Z,25.30
2018-06-09T16:32:52.125Z,25.20
2018-06-09T16:35:20.690Z,25.40
2018-06-09T16:37:49.237Z,25.40
2018-06-09T16:40:17.700Z,25.50
2018-06-09T16:42:46.440Z,25.50
2018-06-09T16:45:14.916Z,25.50
2018-06-09T16:47:43.383Z,25.30
2018-06-09T16:50:11.965Z,25.30
2018-06-09T16:52:40.399Z,25.20
2018-06-09T16:55:09.029Z,25.20
2018-06-09T16:57:37.501Z,24.90
2018-06-09T17:00:06.263Z,25.00
2018-06-09T17:02:34.725Z,24.90
2018-06-09T17:05:03.248Z,24.80
2018-06-09T17:07:31.780Z,24.90
2018-06-09T17:10:00.408Z,25.10
2018-06-09T17:12:28.980Z,25.00
2018-06-09T17:14:57.506Z,24.70
2018-06-09T17:17:26.102Z,24.60
2018-06-09T17:19:54.601Z,24.50
2018-06-09T17:22:23.216Z,24.60
2018-06-09T17:24:51.675Z,24.90
2018-06-09T17:27:20.282Z,24.90
2018-06-09T17:29:48.749Z,24.90
2018-06-09T17:32:18.186Z,24.70
2018-06-09T17:34:46.849Z,24.70
2018-06-09T17:37:15.376Z,24.30
2018-06-09T17:39:44.093Z,24.30
2018-06-09T17:42:12.613Z,24.10
2018-06-09T17:44:41.180Z,24.20
2018-06-09T17:47:09.800Z,23.90
2018-06-09T17:49:38.285Z,24.20
2018-06-09T17:52:06.744Z,24.30
2018-06-09T17:54:35.281Z,24.10
2018-06-09T17:57:03.973Z,24.00
2018-06-09T17:59:32.473Z,23.80
2018-06-09T18:02:01.173Z,23.70
2018-06-09T18:04:29.636Z,23.70
2018-06-09T18:06:58.165Z,23.60
2018-06-09T18:09:26.608Z,23.60
2018-06-09T18:11:55.026Z,23.60
2018-06-09T18:14:23.493Z,23.70
2018-06-09T18:16:51.994Z,23.50
2018-06-09T18:19:20.654Z,23.40
2018-06-09T18:21:49.086Z,23.30
2018-06-09T18:26:45.829Z,23.30
2018-06-09T18:29:14.517Z,23.20
2018-06-09T18:31:43.105Z,23.20
2018-06-09T18:34:11.569Z,23.10
2018-06-09T18:36:40.264Z,23.10
2018-06-09T18:39:09.755Z,23.00
2018-06-09T18:41:38.437Z,22.90
2018-06-09T18:44:06.881Z,22.80
2018-06-09T18:46:35.341Z,22.80
2018-06-09T18:49:03.784Z,23.10
2018-06-09T18:51:32.416Z,22.70
2018-06-09T18:54:00.946Z,22.70
2018-06-09T18:56:29.625Z,22.60
2018-06-09T18:58:58.085Z,22.40
2018-06-09T19:01:26.870Z,22.30
2018-06-09T19:03:55.323Z,22.30
2018-06-09T19:06:24.108Z,22.30
2018-06-09T19:08:52.825Z,22.30
2018-06-09T19:11:21.304Z,22.20
2018-06-09T19:13:49.753Z,22.10
2018-06-09T19:16:18.226Z,22.10
2018-06-09T19:18:46.674Z,22.00
2018-06-09T19:21:15.119Z,22.10
2018-06-09T19:23:43.650Z,21.90
2018-06-09T19:26:12.143Z,21.80
2018-06-09T19:28:40.666Z,21.70
2018-06-09T19:31:09.208Z,21.60
2018-06-09T19:33:37.694Z,21.60
2018-06-09T19:36:06.178Z,21.50
2018-06-09T19:38:34.800Z,21.40
2018-06-09T19:41:03.245Z,21.40
2018-06-09T19:43:31.889Z,21.50
2018-06-09T19:46:00.393Z,21.50
2018-06-09T19:50:57.189Z,21.70
2018-06-09T19:53:25.757Z,21.80
2018-06-09T19:55:54.414Z,21.90
2018-06-09T19:58:23.014Z,21.90
2018-06-09T20:00:51.520Z,21.80
2018-06-09T20:03:20.207Z,21.80
2018-06-09T20:05:48.804Z,21.70
2018-06-09T20:08:17.233Z,21.50
2018-06-09T20:10:45.737Z,21.20
2018-06-09T20:13:14.189Z,21.20
2018-06-09T20:15:42.658Z,21.00
2018-06-09T20:18:11.390Z,21.00
2018-06-09T20:20:39.891Z,21.00
2018-06-09T20:23:08.557Z,21.10
2018-06-09T20:25:37.020Z,21.20
2018-06-09T20:28:05.588Z,21.00
2018-06-09T20:30:34.061Z,21.00
2018-06-09T20:33:02.696Z,21.10
2018-06-09T20:37:59.575Z,21.10
2018-06-09T20:40:28.130Z,21.30
2018-06-09T20:42:56.650Z,21.50
2018-06-09T20:45:25.139Z,21.60
2018-06-09T20:47:53.729Z,21.60
2018-06-09T20:50:22.249Z,21.60
2018-06-09T20:52:50.777Z,21.60
2018-06-09T20:55:19.413Z,21.60
2018-06-09T20:57:48.089Z,21.60
2018-06-09T21:00:16.591Z,21.50
2018-06-09T21:02:45.044Z,21.50
2018-06-09T21:05:13.496Z,21.50
2018-06-09T21:07:41.975Z,21.40
2018-06-09T21:10:10.557Z,21.20
2018-06-09T21:12:39.047Z,21.40
2018-06-09T21:15:07.654Z,21.50
2018-06-09T21:17:36.120Z,21.30
2018-06-09T21:20:04.732Z,21.00
2018-06-09T21:22:33.441Z,21.00
2018-06-09T21:25:01.953Z,20.90
2018-06-09T21:27:34.616Z,21.00
2018-06-09T21:30:10.229Z,21.20
2018-06-09T21:32:47.458Z,21.00
2018-06-09T21:35:32.820Z,20.90
2018-06-09T21:38:06.553Z,20.80
2018-06-09T21:40:40.381Z,20.80
2018-06-09T21:43:26.504Z,20.70
2018-06-09T21:45:54.954Z,20.70
2018-06-09T21:48:23.562Z,20.60
2018-06-09T21:50:52.002Z,20.70
2018-06-09T21:53:20.748Z,20.80
2018-06-09T21:55:49.184Z,20.60
2018-06-09T21:58:17.777Z,20.60
2018-06-09T22:00:46.249Z,20.40
2018-06-09T22:03:14.786Z,20.30
2018-06-09T22:05:43.389Z,20.40
2018-06-09T22:08:11.871Z,20.50
2018-06-09T22:10:40.594Z,20.40
2018-06-09T22:13:09.145Z,20.30
2018-06-09T22:15:37.663Z,20.20
2018-06-09T22:20:34.382Z,20.10
2018-06-09T22:23:03.247Z,20.10
2018-06-09T22:25:36.967Z,20.00
2018-06-09T22:28:05.702Z,20.00
2018-06-09T22:30:34.429Z,20.00
2018-06-09T22:33:02.885Z,20.00
2018-06-09T22:35:31.497Z,20.20
2018-06-09T22:37:59.965Z,20.40
2018-06-09T22:40:28.561Z,20.30
2018-06-09T22:42:57.028Z,20.10
2018-06-09T22:45:25.481Z,20.00
2018-06-09T22:47:53.979Z,20.20
2018-06-09T22:50:22.415Z,20.20
2018-06-09T22:52:50.931Z,20.10
2018-06-09T22:55:19.565Z,20.10
2018-06-09T22:57:48.047Z,20.10
2018-06-09T23:00:27.543Z,20.20
2018-06-09T23:02:56.006Z,20.30
2018-06-09T23:05:24.530Z,20.20
2018-06-09T23:07:53.093Z,20.20
2018-06-09T23:10:21.772Z,20.10
2018-06-09T23:12:50.287Z,20.00
2018-06-09T23:15:18.748Z,20.00
2018-06-09T23:17:47.380Z,20.10
2018-06-09T23:20:15.997Z,20.20
2018-06-09T23:22:44.751Z,20.10
2018-06-09T23:25:13.226Z,19.80
2018-06-09T23:27:41.670Z,19.70
2018-06-09T23:30:10.194Z,19.70
2018-06-09T23:32:38.700Z,19.60
2018-06-09T23:35:07.278Z,19.60
2018-06-09T23:37:35.979Z,19.60
2018-06-09T23:40:04.764Z,19.50
2018-06-09T23:42:33.394Z,19.60
2018-06-09T23:45:01.860Z,19.60
2018-06-09T23:47:30.309Z,19.60
2018-06-09T23:49:58.995Z,19.60
2018-06-09T23:52:27.451Z,19.50
2018-06-09T23:54:56.265Z,19.50
2018-06-09T23:57:24.721Z,19.50
2018-06-09T23:59:53.501Z,19.50
